^^
Your Local Weather - Clay, NY Station Historical Data
Daily Summary for February 9, 2018 Units:  Metric    English   Both
« Previous Day
Next Day »
Daily Weekly Monthly Yearly Custom
  High: Low: Average:
Temperature: -4.3 °C -11.9 °C -7.1 °C
Dew Point: -5.5 °C -14.8 °C -9.6 °C
Humidity: 91% 68% 82%
Wind Speed: 8km/h 0km/h 3.4km/h
Wind Gust: 14.5km/h - -
Wind- - SSE
Pressure: 1031.4 hPa 1021.9 hPa -
Precipitation: 0 mm    
Historical Graphs
 
 
Tabular Data for February 9, 2018
Time Temperature Dew Point Pressure Wind Wind Speed Wind Gust Humidity Rainfall Rate (Hourly) solar
00:02 -9.2 °C -12.5 °C 1029.7 hPa WNW 3.2 km/h 3.2 km/h 77% 0 mm 0 W/m2
00:08 -9.3 °C -12.6 °C 1029.7 hPa WSW 1.6 km/h 6.4 km/h 77% 0 mm 0 W/m2
00:16 -9.3 °C -12.6 °C 1029.7 hPa SW 3.2 km/h 6.4 km/h 77% 0 mm 0 W/m2
00:22 -9.3 °C -12.4 °C 1029.7 hPa West 4.8 km/h 11.3 km/h 78% 0 mm 0 W/m2
00:28 -9.2 °C -12.3 °C 1029.7 hPa SW 4.8 km/h 11.3 km/h 78% 0 mm 0 W/m2
00:34 -9.2 °C -12.3 °C 1029.7 hPa WSW 4.8 km/h 4.8 km/h 78% 0 mm 0 W/m2
00:40 -9.1 °C -12.2 °C 1029.3 hPa WSW 4.8 km/h 8 km/h 78% 0 mm 0 W/m2
00:46 -9.1 °C -12.2 °C 1029.3 hPa West 4.8 km/h 8 km/h 78% 0 mm 0 W/m2
00:52 -9.1 °C -12.2 °C 1029.7 hPa West 1.6 km/h 3.2 km/h 78% 0 mm 0 W/m2
00:58 -9.3 °C -12.4 °C 1029.3 hPa WSW 1.6 km/h 8 km/h 78% 0 mm 0 W/m2
01:04 -9.4 °C -12.5 °C 1029.3 hPa WSW 1.6 km/h 4.8 km/h 78% 0 mm 0 W/m2
01:10 -9.4 °C -12.4 °C 1029.7 hPa WSW 1.6 km/h 1.6 km/h 79% 0 mm 0 W/m2
01:16 -9.6 °C -12.6 °C 1029.7 hPa WSW 1.6 km/h 1.6 km/h 79% 0 mm 0 W/m2
01:22 -9.7 °C -12.6 °C 1029.7 hPa WSW 1.6 km/h 1.6 km/h 79% 0 mm 0 W/m2
01:28 -9.7 °C -12.5 °C 1029.7 hPa West 3.2 km/h 4.8 km/h 80% 0 mm 0 W/m2
01:34 -9.6 °C -12.6 °C 1029.7 hPa West 3.2 km/h 3.2 km/h 79% 0 mm 0 W/m2
01:40 -9.6 °C -12.6 °C 1029.7 hPa West 3.2 km/h 3.2 km/h 79% 0 mm 0 W/m2
01:46 -9.6 °C -12.5 °C 1030 hPa WSW 3.2 km/h 4.8 km/h 79% 0 mm 0 W/m2
01:52 -9.5 °C -12.4 °C 1030 hPa SW 3.2 km/h 12.9 km/h 79% 0 mm 0 W/m2
01:58 -9.5 °C -12.4 °C 1030 hPa SW 3.2 km/h 12.9 km/h 79% 0 mm 0 W/m2
02:04 -9.6 °C -12.5 °C 1030.4 hPa WSW 1.6 km/h 3.2 km/h 79% 0 mm 0 W/m2
02:10 -9.7 °C -12.6 °C 1030.4 hPa WSW 1.6 km/h 1.6 km/h 79% 0 mm 0 W/m2
02:16 -9.7 °C -12.7 °C 1030.4 hPa WSW 1.6 km/h 3.2 km/h 79% 0 mm 0 W/m2
02:22 -9.8 °C -12.8 °C 1030.4 hPa WSW 1.6 km/h 3.2 km/h 79% 0 mm 0 W/m2
02:28 -9.9 °C -12.8 °C 1030.4 hPa SW 3.2 km/h 4.8 km/h 79% 0 mm 0 W/m2
02:34 -9.9 °C -12.8 °C 1030.4 hPa West 3.2 km/h 4.8 km/h 79% 0 mm 0 W/m2
02:40 -9.9 °C -12.9 °C 1030.4 hPa West 3.2 km/h 3.2 km/h 79% 0 mm 0 W/m2
02:46 -10 °C -12.9 °C 1030.4 hPa West 1.6 km/h 4.8 km/h 79% 0 mm 0 W/m2
02:52 -9.9 °C -12.7 °C 1030.4 hPa WSW 3.2 km/h 3.2 km/h 80% 0 mm 0 W/m2
02:58 -9.9 °C -12.7 °C 1030.4 hPa West 3.2 km/h 3.2 km/h 80% 0 mm 0 W/m2
03:04 -9.8 °C -12.8 °C 1030.4 hPa SW 3.2 km/h 4.8 km/h 79% 0 mm 0 W/m2
03:10 -9.8 °C -12.8 °C 1030.4 hPa SW 3.2 km/h 6.4 km/h 79% 0 mm 0 W/m2
03:16 -9.8 °C -12.8 °C 1030.4 hPa West 3.2 km/h 6.4 km/h 79% 0 mm 0 W/m2
03:22 -9.9 °C -12.8 °C 1030.4 hPa SSW 3.2 km/h 3.2 km/h 79% 0 mm 0 W/m2
03:28 -9.9 °C -12.9 °C 1030.4 hPa SSW 1.6 km/h 4.8 km/h 79% 0 mm 0 W/m2
03:34 -10 °C -12.9 °C 1030.4 hPa SSW 1.6 km/h 3.2 km/h 79% 0 mm 0 W/m2
03:40 -10.1 °C -13.1 °C 1030.4 hPa SW 1.6 km/h 1.6 km/h 79% 0 mm 0 W/m2
03:46 -10.2 °C -13.2 °C 1030.4 hPa Calm   1.6 km/h 79% 0 mm 0 W/m2
03:52 -10.4 °C -13.4 °C 1030.4 hPa Calm   1.6 km/h 79% 0 mm 0 W/m2
03:58 -10.6 °C -13.6 °C 1030.4 hPa Calm   3.2 km/h 79% 0 mm 0 W/m2
04:04 -10.7 °C -13.5 °C 1030.4 hPa Calm     80% 0 mm 0 W/m2
04:10 -10.7 °C -13.5 °C 1030.7 hPa Calm     80% 0 mm 0 W/m2
04:16 -10.7 °C -13.4 °C 1030.4 hPa SSW 1.6 km/h 3.2 km/h 80% 0 mm 0 W/m2
04:22 -10.6 °C -13.4 °C 1030.4 hPa SSW 1.6 km/h 1.6 km/h 80% 0 mm 0 W/m2
04:28 -10.5 °C -13.3 °C 1030.4 hPa SW 1.6 km/h 4.8 km/h 80% 0 mm 0 W/m2
04:34 -10.4 °C -13.2 °C 1030.4 hPa SSW 1.6 km/h 1.6 km/h 80% 0 mm 0 W/m2
04:40 -10.3 °C -13.1 °C 1030.4 hPa Calm     80% 0 mm 0 W/m2
04:46 -10.3 °C -13.1 °C 1030.4 hPa Calm     80% 0 mm 0 W/m2
04:52 -10.4 °C -13.3 °C 1030.4 hPa Calm     79% 0 mm 0 W/m2
04:58 -10.6 °C -13.6 °C 1030.4 hPa Calm     79% 0 mm 0 W/m2
05:04 -11.1 °C -14.2 °C 1030.4 hPa Calm     78% 0 mm 0 W/m2
05:10 -11.6 °C -14.4 °C 1030.4 hPa Calm     79% 0 mm 0 W/m2
05:16 -11.9 °C -14.8 °C 1030.4 hPa Calm     79% 0 mm 0 W/m2
05:22 -11.9 °C -14.7 °C 1030.4 hPa Calm     80% 0 mm 0 W/m2
05:28 -11.7 °C -14.3 °C 1030.4 hPa Calm     81% 0 mm 0 W/m2
05:34 -11.2 °C -13.7 °C 1030.7 hPa Calm     82% 0 mm 0 W/m2
05:40 -10.9 °C -13.4 °C 1030.7 hPa Calm     82% 0 mm 0 W/m2
05:46 -10.7 °C -13.2 °C 1030.7 hPa Calm   1.6 km/h 82% 0 mm 0 W/m2
05:52 -10.5 °C -13 °C 1030.7 hPa Calm     82% 0 mm 0 W/m2
05:58 -10.2 °C -12.7 °C 1030.7 hPa SW 1.6 km/h 9.7 km/h 82% 0 mm 0 W/m2
06:04 -10.1 °C -12.6 °C 1030.7 hPa SW 1.6 km/h 3.2 km/h 82% 0 mm 0 W/m2
06:10 -10 °C -12.7 °C 1031 hPa SW 1.6 km/h 1.6 km/h 81% 0 mm 0 W/m2
06:16 -9.9 °C -12.6 °C 1031 hPa SW 1.6 km/h 3.2 km/h 81% 0 mm 0 W/m2
06:22 -9.8 °C -12.5 °C 1030.7 hPa SW 1.6 km/h 1.6 km/h 81% 0 mm 0 W/m2
06:28 -9.8 °C -12.4 °C 1031 hPa SW 1.6 km/h 4.8 km/h 81% 0 mm 0 W/m2
06:34 -9.7 °C -12.5 °C 1031 hPa SW 1.6 km/h 1.6 km/h 80% 0 mm 0 W/m2
06:40 -9.6 °C -12.2 °C 1030.7 hPa SSW 1.6 km/h 1.6 km/h 81% 0 mm 0 W/m2
06:46 -9.4 °C -12.2 °C 1030.7 hPa SSW 3.2 km/h 3.2 km/h 80% 0 mm 0 W/m2
06:52 -9.2 °C -12.1 °C 1030.7 hPa SW 3.2 km/h 3.2 km/h 80% 0 mm 0 W/m2
06:58 -9.1 °C -11.9 °C 1030.7 hPa South 3.2 km/h 8 km/h 80% 0 mm 0 W/m2
07:04 -8.9 °C -11.9 °C 1031 hPa SW 4.8 km/h 8 km/h 79% 0 mm 5 W/m2
07:10 -8.9 °C -11.9 °C 1030.7 hPa SW 3.2 km/h 3.2 km/h 79% 0 mm 7 W/m2
07:16 -8.9 °C -11.9 °C 1030.7 hPa SW 3.2 km/h 6.4 km/h 79% 0 mm 9 W/m2
07:22 -8.9 °C -12.1 °C 1030.7 hPa South 3.2 km/h 6.4 km/h 78% 0 mm 14 W/m2
07:28 -8.8 °C -12 °C 1031 hPa SSW 3.2 km/h 6.4 km/h 78% 0 mm 18 W/m2
07:34 -8.8 °C -12 °C 1031 hPa SSW 3.2 km/h 4.8 km/h 78% 0 mm 26 W/m2
07:40 -8.7 °C -11.9 °C 1031 hPa SW 4.8 km/h 4.8 km/h 78% 0 mm 42 W/m2
07:46 -8.6 °C -11.9 °C 1031 hPa SSW 3.2 km/h 4.8 km/h 77% 0 mm 51 W/m2
07:52 -8.6 °C -11.9 °C 1031.4 hPa SW 1.6 km/h 3.2 km/h 77% 0 mm 47 W/m2
07:58 -8.4 °C -11.8 °C 1031.4 hPa SSW 3.2 km/h 3.2 km/h 77% 0 mm 67 W/m2
08:04 -8.3 °C -11.7 °C 1031.4 hPa SW 3.2 km/h 4.8 km/h 77% 0 mm 83 W/m2
08:10 -8.2 °C -11.7 °C 1031.4 hPa WSW 3.2 km/h 3.2 km/h 76% 0 mm 84 W/m2
08:16 -8.1 °C -11.6 °C 1031.4 hPa SSW 1.6 km/h 4.8 km/h 76% 0 mm 79 W/m2
08:22 -7.9 °C -11.4 °C 1031.4 hPa SW 3.2 km/h 6.4 km/h 76% 0 mm 84 W/m2
08:28 -7.8 °C -11.3 °C 1031.4 hPa SW 3.2 km/h 6.4 km/h 76% 0 mm 83 W/m2
08:34 -7.7 °C -11.4 °C 1031.4 hPa SSW 3.2 km/h 4.8 km/h 75% 0 mm 88 W/m2
08:40 -7.7 °C -11.3 °C 1031.4 hPa SSW 3.2 km/h 3.2 km/h 75% 0 mm 98 W/m2
08:46 -7.6 °C -11.2 °C 1031.4 hPa SSW 3.2 km/h 3.2 km/h 75% 0 mm 118 W/m2
08:52 -7.4 °C -11.1 °C 1031 hPa SSW 3.2 km/h 4.8 km/h 75% 0 mm 149 W/m2
08:58 -7.2 °C -11.1 °C 1031 hPa SSW 1.6 km/h 4.8 km/h 74% 0 mm 171 W/m2
09:04 -7.1 °C -10.9 °C 1031 hPa SSW 1.6 km/h 1.6 km/h 74% 0 mm 167 W/m2
09:10 -7 °C -11 °C 1031 hPa South 1.6 km/h 6.4 km/h 73% 0 mm 160 W/m2
09:16 -6.9 °C -10.9 °C 1031 hPa SSW 3.2 km/h 6.4 km/h 73% 0 mm 171 W/m2
09:22 -6.8 °C -10.9 °C 1031 hPa South 1.6 km/h 4.8 km/h 73% 0 mm 174 W/m2
09:28 -6.7 °C -10.9 °C 1031 hPa WSW 1.6 km/h 4.8 km/h 72% 0 mm 174 W/m2
09:34 -6.6 °C -10.8 °C 1031 hPa WSW 1.6 km/h 3.2 km/h 72% 0 mm 179 W/m2
09:40 -6.6 °C -10.8 °C 1031 hPa SW 1.6 km/h 1.6 km/h 72% 0 mm 181 W/m2
09:46 -6.4 °C -10.8 °C 1031.4 hPa SSW 3.2 km/h 8 km/h 71% 0 mm 181 W/m2
09:52 -6.4 °C -10.8 °C 1031.4 hPa SW 4.8 km/h 4.8 km/h 71% 0 mm 183 W/m2
09:58 -6.4 °C -10.9 °C 1031.4 hPa SW 4.8 km/h 9.7 km/h 70% 0 mm 186 W/m2
10:04 -6.4 °C -11 °C 1031.4 hPa South 4.8 km/h 4.8 km/h 70% 0 mm 192 W/m2
10:10 -6.3 °C -11.1 °C 1031.4 hPa SW 4.8 km/h 6.4 km/h 69% 0 mm 185 W/m2
10:16 -6.3 °C -11.1 °C 1031 hPa SSE 4.8 km/h 8 km/h 69% 0 mm 183 W/m2
10:22 -6.4 °C -11.2 °C 1031 hPa South 4.8 km/h 11.3 km/h 69% 0 mm 181 W/m2
10:28 -6.4 °C -11.3 °C 1030.7 hPa South 6.4 km/h 14.5 km/h 68% 0 mm 186 W/m2
10:34 -6.3 °C -11.1 °C 1031 hPa SE 6.4 km/h 9.7 km/h 69% 0 mm 199 W/m2
10:40 -6.2 °C -11.1 °C 1031 hPa South 4.8 km/h 4.8 km/h 68% 0 mm 193 W/m2
10:46 -6.1 °C -11.1 °C 1031 hPa SW 4.8 km/h 8 km/h 68% 0 mm 197 W/m2
10:52 -6 °C -10.9 °C 1031 hPa SSW 6.4 km/h 6.4 km/h 68% 0 mm 193 W/m2
10:58 -5.9 °C -10.7 °C 1031.4 hPa SSW 6.4 km/h 11.3 km/h 69% 0 mm 172 W/m2
11:04 -6 °C -10.8 °C 1031.4 hPa South 8 km/h 9.7 km/h 69% 0 mm 171 W/m2
11:10 -5.9 °C -10.7 °C 1031 hPa SW 4.8 km/h 4.8 km/h 69% 0 mm 171 W/m2
11:16 -5.9 °C -10.7 °C 1031 hPa South 4.8 km/h 12.9 km/h 69% 0 mm 169 W/m2
11:22 -6 °C -10.6 °C 1030.7 hPa SSE 6.4 km/h 9.7 km/h 70% 0 mm 178 W/m2
11:28 -6.1 °C -10.4 °C 1030.7 hPa South 8 km/h 9.7 km/h 71% 0 mm 179 W/m2
11:34 -6.2 °C -10.2 °C 1030.7 hPa South 8 km/h 8 km/h 73% 0 mm 179 W/m2
11:40 -6.2 °C -10.1 °C 1030.7 hPa SSW 8 km/h 12.9 km/h 74% 0 mm 178 W/m2
11:46 -6.3 °C -9.8 °C 1030.4 hPa South 6.4 km/h 12.9 km/h 76% 0 mm 190 W/m2
11:52 -6.2 °C -9.8 °C 1030.4 hPa SSW 6.4 km/h 6.4 km/h 76% 0 mm 211 W/m2
11:58 -6.2 °C -9.6 °C 1030 hPa South 6.4 km/h 9.7 km/h 77% 0 mm 218 W/m2
12:04 -6.1 °C -9.3 °C 1030 hPa SW 6.4 km/h 6.4 km/h 78% 0 mm 213 W/m2
12:10 -5.9 °C -9.2 °C 1029.7 hPa South 3.2 km/h 3.2 km/h 78% 0 mm 206 W/m2
12:16 -5.9 °C -9.1 °C 1029.7 hPa SW 3.2 km/h 6.4 km/h 78% 0 mm 206 W/m2
12:22 -5.9 °C -8.9 °C 1029.7 hPa South 3.2 km/h 4.8 km/h 79% 0 mm 213 W/m2
12:28 -5.8 °C -8.9 °C 1029.7 hPa SSE 3.2 km/h 8 km/h 79% 0 mm 211 W/m2
12:34 -5.9 °C -9 °C 1029.3 hPa SSE 6.4 km/h 8 km/h 79% 0 mm 211 W/m2
12:40 -5.9 °C -8.8 °C 1029.3 hPa SSE 6.4 km/h 6.4 km/h 80% 0 mm 200 W/m2
12:46 -5.9 °C -8.8 °C 1029.3 hPa SSW 6.4 km/h 6.4 km/h 80% 0 mm 188 W/m2
12:52 -5.8 °C -8.7 °C 1029.3 hPa SW 4.8 km/h 8 km/h 80% 0 mm 193 W/m2
12:58 -5.7 °C -8.6 °C 1029.3 hPa ESE 4.8 km/h 8 km/h 80% 0 mm 186 W/m2
13:04 -5.7 °C -8.6 °C 1029.3 hPa SSW 6.4 km/h 6.4 km/h 80% 0 mm 185 W/m2
13:10 -5.7 °C -8.6 °C 1029.3 hPa South 6.4 km/h 6.4 km/h 80% 0 mm 188 W/m2
13:16 -5.8 °C -8.4 °C 1029 hPa SE 6.4 km/h 9.7 km/h 82% 0 mm 186 W/m2
13:22 -5.9 °C -8.4 °C 1028.7 hPa SE 4.8 km/h 8 km/h 82% 0 mm 158 W/m2
13:28 -5.9 °C -8.3 °C 1029 hPa SSE 4.8 km/h 8 km/h 83% 0 mm 146 W/m2
13:34 -5.9 °C -8.2 °C 1028.7 hPa South 4.8 km/h 4.8 km/h 84% 0 mm 148 W/m2
13:40 -5.9 °C -8.2 °C 1028.7 hPa South 4.8 km/h 4.8 km/h 84% 0 mm 155 W/m2
13:46 -5.9 °C -8 °C 1028.7 hPa SSE 4.8 km/h 6.4 km/h 85% 0 mm 156 W/m2
13:52 -5.7 °C -7.8 °C 1028.3 hPa SSE 3.2 km/h 3.2 km/h 85% 0 mm 148 W/m2
13:58 -5.7 °C -7.6 °C 1028.3 hPa South 3.2 km/h 4.8 km/h 86% 0 mm 148 W/m2
14:04 -5.6 °C -7.5 °C 1028 hPa SSE 3.2 km/h 4.8 km/h 86% 0 mm 155 W/m2
14:10 -5.6 °C -7.5 °C 1028 hPa SE 1.6 km/h 1.6 km/h 86% 0 mm 160 W/m2
14:16 -5.4 °C -7.4 °C 1028 hPa ESE 3.2 km/h 6.4 km/h 86% 0 mm 153 W/m2
14:22 -5.4 °C -7.4 °C 1027.7 hPa SE 3.2 km/h 3.2 km/h 86% 0 mm 144 W/m2
14:28 -5.4 °C -7.4 °C 1027.7 hPa SE 4.8 km/h 8 km/h 86% 0 mm 128 W/m2
14:34 -5.4 °C -7.4 °C 1027.7 hPa SE 6.4 km/h 8 km/h 86% 0 mm 128 W/m2
14:40 -5.3 °C -7.3 °C 1027.3 hPa East 4.8 km/h 4.8 km/h 86% 0 mm 130 W/m2
14:52 -5.3 °C -7.3 °C 1027 hPa ENE 4.8 km/h 4.8 km/h 86% 0 mm 121 W/m2
14:58 -5.2 °C -7.2 °C 1027 hPa SE 4.8 km/h 4.8 km/h 86% 0 mm 121 W/m2
15:04 -5.3 °C -7.3 °C 1027 hPa East 3.2 km/h 4.8 km/h 86% 0 mm 116 W/m2
15:10 -5.3 °C -7.1 °C 1027 hPa East 3.2 km/h 3.2 km/h 87% 0 mm 111 W/m2
15:16 -5.2 °C -7.1 °C 1027 hPa East 3.2 km/h 3.2 km/h 87% 0 mm 104 W/m2
15:22 -5.2 °C -7.1 °C 1026.6 hPa ESE 3.2 km/h 4.8 km/h 87% 0 mm 102 W/m2
15:28 -5.2 °C -7.1 °C 1026.6 hPa ENE 3.2 km/h 4.8 km/h 87% 0 mm 95 W/m2
15:34 -5.2 °C -7 °C 1026.6 hPa SSE 3.2 km/h 6.4 km/h 87% 0 mm 90 W/m2
15:40 -5.3 °C -7.1 °C 1026.6 hPa SE 6.4 km/h 6.4 km/h 87% 0 mm 88 W/m2
15:48 -5.2 °C -7 °C 1026.6 hPa SE 3.2 km/h 9.7 km/h 87% 0 mm 79 W/m2
15:54 -5.2 °C -7 °C 1026.6 hPa SE 3.2 km/h 4.8 km/h 87% 0 mm 72 W/m2
16:00 -5.1 °C -6.9 °C 1026.3 hPa SE 3.2 km/h 4.8 km/h 87% 0 mm 70 W/m2
16:06 -5.1 °C -6.9 °C 1026.3 hPa SE 3.2 km/h 4.8 km/h 87% 0 mm 63 W/m2
16:12 -5.1 °C -6.8 °C 1026.3 hPa ESE 3.2 km/h 3.2 km/h 88% 0 mm 51 W/m2
16:18 -5.1 °C -6.8 °C 1026 hPa ENE 3.2 km/h 4.8 km/h 88% 0 mm 47 W/m2
16:24 -5.2 °C -7.1 °C 1026 hPa NE 4.8 km/h 8 km/h 87% 0 mm 53 W/m2
16:30 -5.3 °C -6.9 °C 1026 hPa ENE 4.8 km/h 4.8 km/h 88% 0 mm 49 W/m2
16:36 -5.3 °C -7 °C 1025.6 hPa ENE 4.8 km/h 6.4 km/h 88% 0 mm 46 W/m2
16:42 -5.4 °C -7.1 °C 1025.6 hPa ENE 4.8 km/h 6.4 km/h 88% 0 mm 40 W/m2
16:50 -5.5 °C -7.2 °C 1025.6 hPa East 4.8 km/h 4.8 km/h 88% 0 mm 28 W/m2
16:56 -5.5 °C -7.2 °C 1025.3 hPa ESE 3.2 km/h 6.4 km/h 88% 0 mm 25 W/m2
17:02 -5.5 °C -7.2 °C 1024.9 hPa ENE 3.2 km/h 4.8 km/h 88% 0 mm 19 W/m2
17:08 -5.5 °C -7 °C 1024.9 hPa ENE 3.2 km/h 11.3 km/h 89% 0 mm 14 W/m2
17:14 -5.5 °C -7.2 °C 1024.9 hPa NE 4.8 km/h 6.4 km/h 88% 0 mm 9 W/m2
17:20 -5.5 °C -7.2 °C 1024.9 hPa ENE 3.2 km/h 3.2 km/h 88% 0 mm 5 W/m2
17:26 -5.5 °C -7 °C 1024.9 hPa NE 3.2 km/h 4.8 km/h 89% 0 mm 0 W/m2
17:32 -5.4 °C -6.9 °C 1024.9 hPa ENE 4.8 km/h 6.4 km/h 89% 0 mm 0 W/m2
17:38 -5.4 °C -6.9 °C 1024.6 hPa ENE 4.8 km/h 6.4 km/h 89% 0 mm 0 W/m2
17:44 -5.4 °C -6.9 °C 1024.6 hPa East 4.8 km/h 6.4 km/h 89% 0 mm 0 W/m2
17:50 -5.4 °C -6.9 °C 1024.6 hPa ENE 4.8 km/h 4.8 km/h 89% 0 mm 0 W/m2
17:56 -5.4 °C -6.9 °C 1024.3 hPa ENE 4.8 km/h 4.8 km/h 89% 0 mm 0 W/m2
18:02 -5.4 °C -6.9 °C 1024.6 hPa NE 4.8 km/h 4.8 km/h 89% 0 mm 0 W/m2
18:08 -5.4 °C -6.9 °C 1024.3 hPa East 4.8 km/h 4.8 km/h 89% 0 mm 0 W/m2
18:14 -5.4 °C -6.9 °C 1024.3 hPa East 4.8 km/h 4.8 km/h 89% 0 mm 0 W/m2
18:20 -5.3 °C -6.7 °C 1024.3 hPa ENE 4.8 km/h 8 km/h 90% 0 mm 0 W/m2
18:26 -5.3 °C -6.7 °C 1024.3 hPa ESE 6.4 km/h 8 km/h 90% 0 mm 0 W/m2
18:32 -5.4 °C -6.8 °C 1024.3 hPa ENE 4.8 km/h 6.4 km/h 90% 0 mm 0 W/m2
18:38 -5.4 °C -6.8 °C 1023.9 hPa ENE 4.8 km/h 6.4 km/h 90% 0 mm 0 W/m2
18:44 -5.4 °C -6.8 °C 1024.3 hPa SE 4.8 km/h 12.9 km/h 90% 0 mm 0 W/m2
18:50 -5.4 °C -6.8 °C 1024.3 hPa ENE 4.8 km/h 4.8 km/h 90% 0 mm 0 W/m2
18:56 -5.5 °C -6.9 °C 1024.3 hPa ENE 4.8 km/h 11.3 km/h 90% 0 mm 0 W/m2
19:02 -5.6 °C -6.9 °C 1024.3 hPa ENE 4.8 km/h 6.4 km/h 90% 0 mm 0 W/m2
19:08 -5.6 °C -6.9 °C 1024.3 hPa SE 3.2 km/h 6.4 km/h 90% 0 mm 0 W/m2
19:14 -5.6 °C -7 °C 1024.3 hPa ENE 1.6 km/h 4.8 km/h 90% 0 mm 0 W/m2
19:20 -5.7 °C -7.1 °C 1024.3 hPa East 1.6 km/h 1.6 km/h 90% 0 mm 0 W/m2
19:26 -5.7 °C -7.1 °C 1024.3 hPa East 1.6 km/h 3.2 km/h 90% 0 mm 0 W/m2
19:32 -5.7 °C -7.1 °C 1024.3 hPa ENE 1.6 km/h 4.8 km/h 90% 0 mm 0 W/m2
19:38 -5.7 °C -7.1 °C 1023.9 hPa ENE 3.2 km/h 4.8 km/h 90% 0 mm 0 W/m2
19:44 -5.7 °C -7.1 °C 1023.9 hPa ESE 3.2 km/h 4.8 km/h 90% 0 mm 0 W/m2
19:50 -5.7 °C -7.1 °C 1023.9 hPa East 3.2 km/h 3.2 km/h 90% 0 mm 0 W/m2
19:56 -5.7 °C -7.1 °C 1023.9 hPa NE 3.2 km/h 8 km/h 90% 0 mm 0 W/m2
20:02 -5.7 °C -7.1 °C 1023.9 hPa ENE 3.2 km/h 4.8 km/h 90% 0 mm 0 W/m2
20:08 -5.7 °C -7.1 °C 1023.9 hPa ENE 3.2 km/h 4.8 km/h 90% 0 mm 0 W/m2
20:14 -5.7 °C -7.1 °C 1023.6 hPa ENE 1.6 km/h 3.2 km/h 90% 0 mm 0 W/m2
20:20 -5.7 °C -6.9 °C 1023.6 hPa ENE 3.2 km/h 3.2 km/h 91% 0 mm 0 W/m2
20:26 -5.6 °C -7 °C 1023.6 hPa ENE 3.2 km/h 6.4 km/h 90% 0 mm 0 W/m2
20:32 -5.6 °C -6.8 °C 1023.6 hPa ENE 3.2 km/h 3.2 km/h 91% 0 mm 0 W/m2
20:38 -5.6 °C -6.8 °C 1023.2 hPa East 3.2 km/h 3.2 km/h 91% 0 mm 0 W/m2
20:44 -5.6 °C -6.8 °C 1023.2 hPa SE 1.6 km/h 4.8 km/h 91% 0 mm 0 W/m2
20:50 -5.6 °C -6.8 °C 1023.2 hPa ENE 3.2 km/h 3.2 km/h 91% 0 mm 0 W/m2
20:56 -5.6 °C -6.8 °C 1023.2 hPa East 4.8 km/h 4.8 km/h 91% 0 mm 0 W/m2
21:02 -5.5 °C -6.7 °C 1022.9 hPa ENE 4.8 km/h 4.8 km/h 91% 0 mm 0 W/m2
21:08 -5.4 °C -6.7 °C 1022.9 hPa ENE 4.8 km/h 6.4 km/h 91% 0 mm 0 W/m2
21:14 -5.4 °C -6.7 °C 1022.9 hPa NE 4.8 km/h 8 km/h 91% 0 mm 0 W/m2
21:20 -5.4 °C -6.6 °C 1022.9 hPa ENE 4.8 km/h 4.8 km/h 91% 0 mm 0 W/m2
21:26 -5.3 °C -6.6 °C 1022.9 hPa ENE 4.8 km/h 4.8 km/h 91% 0 mm 0 W/m2
21:32 -5.3 °C -6.6 °C 1022.9 hPa East 4.8 km/h 4.8 km/h 91% 0 mm 0 W/m2
21:38 -5.3 °C -6.5 °C 1023.2 hPa ENE 3.2 km/h 6.4 km/h 91% 0 mm 0 W/m2
21:44 -5.2 °C -6.4 °C 1022.9 hPa ENE 3.2 km/h 6.4 km/h 91% 0 mm 0 W/m2
21:50 -5.2 °C -6.4 °C 1022.9 hPa ENE 3.2 km/h 11.3 km/h 91% 0 mm 0 W/m2
21:56 -5.2 °C -6.4 °C 1022.6 hPa ENE 4.8 km/h 11.3 km/h 91% 0 mm 0 W/m2
22:02 -5.2 °C -6.4 °C 1022.6 hPa NE 4.8 km/h 4.8 km/h 91% 0 mm 0 W/m2
22:08 -5.2 °C -6.4 °C 1022.6 hPa East 3.2 km/h 12.9 km/h 91% 0 mm 0 W/m2
22:14 -5.1 °C -6.3 °C 1022.6 hPa ENE 4.8 km/h 4.8 km/h 91% 0 mm 0 W/m2
22:20 -5.1 °C -6.3 °C 1022.6 hPa ENE 4.8 km/h 4.8 km/h 91% 0 mm 0 W/m2
22:26 -5 °C -6.2 °C 1022.6 hPa ENE 4.8 km/h 4.8 km/h 91% 0 mm 0 W/m2
22:32 -4.9 °C -6.2 °C 1022.6 hPa ENE 3.2 km/h 3.2 km/h 91% 0 mm 0 W/m2
22:38 -4.9 °C -6.1 °C 1022.6 hPa ENE 3.2 km/h 3.2 km/h 91% 0 mm 0 W/m2
22:44 -4.8 °C -6.1 °C 1022.2 hPa ENE 3.2 km/h 4.8 km/h 91% 0 mm 0 W/m2
22:50 -4.8 °C -6.1 °C 1022.2 hPa ENE 3.2 km/h 3.2 km/h 91% 0 mm 0 W/m2
22:56 -4.8 °C -6 °C 1022.2 hPa East 3.2 km/h 6.4 km/h 91% 0 mm 0 W/m2
23:02 -4.7 °C -5.9 °C 1022.2 hPa East 1.6 km/h 1.6 km/h 91% 0 mm 0 W/m2
23:08 -4.7 °C -5.9 °C 1022.2 hPa East 1.6 km/h 1.6 km/h 91% 0 mm 0 W/m2
23:14 -4.6 °C -5.8 °C 1022.2 hPa East 1.6 km/h 1.6 km/h 91% 0 mm 0 W/m2
23:20 -4.6 °C -5.8 °C 1022.2 hPa East 1.6 km/h 3.2 km/h 91% 0 mm 0 W/m2
23:26 -4.5 °C -5.7 °C 1022.2 hPa East 1.6 km/h 3.2 km/h 91% 0 mm 0 W/m2
23:32 -4.4 °C -5.7 °C 1021.9 hPa East 1.6 km/h 3.2 km/h 91% 0 mm 0 W/m2
23:38 -4.4 °C -5.6 °C 1021.9 hPa ENE 3.2 km/h 4.8 km/h 91% 0 mm 0 W/m2
23:44 -4.3 °C -5.6 °C 1021.9 hPa ENE 3.2 km/h 4.8 km/h 91% 0 mm 0 W/m2
23:50 -4.3 °C -5.5 °C 1021.9 hPa ENE 1.6 km/h 3.2 km/h 91% 0 mm 0 W/m2
23:56 -4.3 °C -5.5 °C 1021.9 hPa ENE 1.6 km/h 3.2 km/h 91% 0 mm 0 W/m2
Country Meadow, Clay, NY, USA
Compliments of Weather Underground - 2 mb